Marlow, Oklahoma
Current Conditions -  °F | °C
As of 10:55 AM on Monday 22 Dec 2014 (Local Time) from KDUC Reporting Station
NA  
Wind Chill: 50°   Ceiling: NA
Heat Index: 50°   Visibility: NA
Dew Point: 46°   Wind: 21mph
Humidity: 87%   Direction: 330°NNW
Pressure: 29.65"   Gusts: 24mph
Location:  34.65°N, 97.96°W
Report Text: KDUC 221655Z AUTO 33018G21KT 10/08 A2965 RMK AO2 PWINO
Loading
Personal Weather Stations






























Interactive Weather Map New forecast layout! Learn more

10-Day Weather Forecast

Advertisements
Track Severe Weather on mobile